Time;durP1;ratioP1;P1;durP2;ratioP2;P2;SDS_P1;SDS_P2;PMS_P1;PMS_P2;Temp;Humidity;BMP_temperature;BMP_pressure;BME280_temperature;BME280_humidity;BME280_pressure;Samples;Min_cycle;Max_cycle;Signal;HPM_P1;HPM_P2
2022/09/25 00:00:19;;;;;;;24.70;9.95;;;;;;;;;;4965675;28;20117;-70
2022/09/25 00:02:45;;;;;;;20.77;9.82;;;;;;;;;;4967399;28;20074;-71
2022/09/25 00:05:11;;;;;;;28.88;8.73;;;;;;;;;;4970973;28;20058;-71
2022/09/25 00:07:37;;;;;;;26.95;10.00;;;;;;;;;;4966319;28;20054;-71
2022/09/25 00:10:03;;;;;;;16.67;7.22;;;;;;;;;;4966559;28;20266;-71
2022/09/25 00:12:29;;;;;;;20.35;6.07;;;;;;;;;;4966204;28;20042;-71
2022/09/25 00:14:56;;;;;;;15.88;6.25;;;;;;;;;;4967596;28;20093;-71
2022/09/25 00:17:22;;;;;;;17.10;6.93;;;;;;;;;;4963928;28;20546;-70
2022/09/25 00:19:51;;;;;;;14.90;6.65;;;;;;;;;;4968011;28;20026;-70
2022/09/25 00:22:20;;;;;;;14.77;6.97;;;;;;;;;;4965748;28;20058;-71
2022/09/25 00:24:46;;;;;;;19.95;8.85;;;;;;;;;;4965180;28;20073;-70
2022/09/25 00:27:12;;;;;;;17.02;7.50;;;;;;;;;;4965827;28;20039;-71
2022/09/25 00:29:39;;;;;;;19.30;6.78;;;;;;;;;;4969521;28;20129;-71
2022/09/25 00:32:07;;;;;;;19.25;7.28;;;;;;;;;;4968493;28;20074;-70
2022/09/25 00:34:33;;;;;;;13.45;6.07;;;;;;;;;;4968145;28;20035;-70
2022/09/25 00:36:59;;;;;;;15.27;5.68;;;;;;;;;;4966559;28;20041;-70
2022/09/25 00:39:25;;;;;;;13.68;7.03;;;;;;;;;;4965001;28;20077;-71
2022/09/25 00:41:52;;;;;;;18.73;7.10;;;;;;;;;;4969559;28;20045;-70
2022/09/25 00:44:36;;;;;;;18.73;7.05;;;;;;;;;;4968497;28;20030;-71
2022/09/25 00:47:03;;;;;;;20.52;6.45;;;;;;;;;;4968927;28;20038;-71
2022/09/25 00:49:29;;;;;;;13.45;5.72;;;;;;;;;;4963886;28;20058;-70
2022/09/25 00:52:05;;;;;;;20.08;6.53;;;;;;;;;;4964390;28;20027;-71
2022/09/25 00:54:36;;;;;;;18.67;6.82;;;;;;;;;;4964057;28;20086;-70
2022/09/25 00:57:05;;;;;;;24.42;8.18;;;;;;;;;;4981610;28;20061;-71
2022/09/25 00:59:36;;;;;;;16.13;8.07;;;;;;;;;;4969570;28;20027;-71
2022/09/25 01:02:02;;;;;;;;;;;;;;;;;;4979313;28;20030;-71
2022/09/25 01:04:30;;;;;;;21.27;6.50;;;;;;;;;;4970293;28;20487;-70
2022/09/25 01:06:56;;;;;;;15.73;6.18;;;;;;;;;;4965748;28;20465;-70
2022/09/25 01:09:23;;;;;;;17.42;6.35;;;;;;;;;;4964342;28;20097;-70
2022/09/25 01:11:49;;;;;;;22.25;6.43;;;;;;;;;;4963973;28;20030;-70
2022/09/25 01:14:16;;;;;;;22.30;5.90;;;;;;;;;;4964467;28;20722;-70
2022/09/25 01:17:00;;;;;;;18.50;5.13;;;;;;;;;;4962107;28;20065;-70
2022/09/25 01:19:38;;;;;;;10.10;4.75;;;;;;;;;;4963762;28;20031;-70
2022/09/25 01:22:08;;;;;;;14.73;4.45;;;;;;;;;;4962521;28;20119;-70
2022/09/25 01:24:41;;;;;;;13.47;4.80;;;;;;;;;;4964515;28;20626;-70
2022/09/25 01:27:10;;;;;;;11.50;5.10;;;;;;;;;;4964618;28;20286;-71
2022/09/25 01:29:36;;;;;;;12.45;4.60;;;;;;;;;;4979980;28;20101;-70
2022/09/25 01:32:08;;;;;;;11.75;4.75;;;;;;;;;;4966379;28;20035;-70
2022/09/25 01:34:58;;;;;;;14.50;5.50;;;;;;;;;;4965142;28;20076;-70
2022/09/25 01:37:43;;;;;;;14.82;4.90;;;;;;;;;;4964939;28;20058;-70
2022/09/25 01:40:35;;;;;;;14.63;5.65;;;;;;;;;;4964878;28;20054;-70
2022/09/25 01:43:10;;;;;;;12.20;5.68;;;;;;;;;;4963731;28;20035;-70
2022/09/25 01:45:40;;;;;;;12.77;5.82;;;;;;;;;;4963417;28;20134;-71
2022/09/25 01:48:08;;;;;;;15.90;6.00;;;;;;;;;;4967216;28;20166;-70
2022/09/25 01:50:38;;;;;;;12.40;6.00;;;;;;;;;;4967453;28;20310;-70
2022/09/25 01:53:07;;;;;;;21.42;8.25;;;;;;;;;;4966769;28;20042;-70
2022/09/25 01:55:41;;;;;;;22.38;9.25;;;;;;;;;;4964596;28;20436;-70
2022/09/25 01:58:13;;;;;;;18.30;7.30;;;;;;;;;;4967218;28;20464;-69
2022/09/25 02:00:42;;;;;;;12.88;6.28;;;;;;;;;;4968079;28;20476;-70
2022/09/25 02:03:14;;;;;;;14.75;7.47;;;;;;;;;;4964429;28;20531;-70
2022/09/25 02:05:40;;;;;;;16.98;5.63;;;;;;;;;;4963485;28;20077;-71
2022/09/25 02:08:12;;;;;;;16.73;5.40;;;;;;;;;;4969215;28;20050;-72
2022/09/25 02:10:44;;;;;;;11.32;4.85;;;;;;;;;;4970228;28;20039;-71
2022/09/25 02:13:12;;;;;;;25.67;6.88;;;;;;;;;;4970143;28;20034;-71
2022/09/25 02:15:59;;;;;;;16.42;5.10;;;;;;;;;;4968471;28;20062;-72
2022/09/25 02:21:16;;;;;;;16.95;5.80;;;;;;;;;;4969479;28;20413;-71
2022/09/25 02:23:45;;;;;;;44.67;7.60;;;;;;;;;;4969482;28;20034;-71
2022/09/25 02:26:14;;;;;;;25.40;7.78;;;;;;;;;;4978595;28;20093;-71
2022/09/25 02:28:41;;;;;;;24.80;7.05;;;;;;;;;;4969415;28;20527;-70
2022/09/25 02:31:08;;;;;;;12.80;6.13;;;;;;;;;;4968060;28;20057;-71
2022/09/25 02:33:34;;;;;;;13.60;5.88;;;;;;;;;;4972191;28;20575;-71
2022/09/25 02:36:02;;;;;;;18.33;5.93;;;;;;;;;;4969334;28;20115;-71
2022/09/25 02:38:30;;;;;;;16.92;6.82;;;;;;;;;;4970876;28;20504;-71
2022/09/25 02:40:59;;;;;;;16.65;6.88;;;;;;;;;;4969501;28;20023;-71
2022/09/25 02:43:33;;;;;;;19.80;6.97;;;;;;;;;;4981401;28;20480;-70
2022/09/25 02:46:06;;;;;;;16.70;7.47;;;;;;;;;;4967178;28;20058;-71
2022/09/25 02:48:40;;;;;;;16.05;6.88;;;;;;;;;;4966708;28;20472;-70
2022/09/25 02:51:09;;;;;;;21.40;7.75;;;;;;;;;;4966810;28;20031;-70
2022/09/25 02:53:41;;;;;;;23.38;7.07;;;;;;;;;;4972983;28;20035;-71
2022/09/25 02:56:12;;;;;;;36.80;7.57;;;;;;;;;;4981843;28;20042;-71
2022/09/25 02:58:45;;;;;;;25.13;6.05;;;;;;;;;;4968593;28;20095;-71
2022/09/25 03:01:12;;;;;;;34.05;6.25;;;;;;;;;;4969693;28;20605;-71
2022/09/25 03:03:39;;;;;;;25.25;6.05;;;;;;;;;;4969766;28;20089;-73
2022/09/25 03:06:06;;;;;;;29.20;8.32;;;;;;;;;;4971125;28;20106;-71
2022/09/25 03:08:37;;;;;;;30.80;9.65;;;;;;;;;;4967328;28;20094;-74
2022/09/25 03:11:04;;;;;;;30.63;9.52;;;;;;;;;;4964593;28;20069;-70
2022/09/25 03:13:32;;;;;;;29.38;9.85;;;;;;;;;;4978465;28;20561;-72
2022/09/25 03:16:01;;;;;;;30.25;10.52;;;;;;;;;;4967456;28;20476;-70
2022/09/25 03:18:27;;;;;;;39.63;13.65;;;;;;;;;;4969958;28;20373;-71
2022/09/25 03:20:54;;;;;;;45.40;14.05;;;;;;;;;;4968058;28;20054;-71
2022/09/25 03:23:20;;;;;;;52.97;16.17;;;;;;;;;;4965362;28;20034;-71
2022/09/25 03:25:46;;;;;;;62.55;18.73;;;;;;;;;;4982723;28;20711;-71
2022/09/25 03:28:13;;;;;;;68.45;19.83;;;;;;;;;;4964628;28;20042;-71
2022/09/25 03:30:39;;;;;;;61.63;20.48;;;;;;;;;;4967704;28;20031;-70
2022/09/25 03:33:09;;;;;;;60.67;21.08;;;;;;;;;;4968629;28;20074;-70
2022/09/25 03:35:39;;;;;;;69.07;23.50;;;;;;;;;;4967765;28;20034;-70
2022/09/25 03:38:07;;;;;;;62.70;23.30;;;;;;;;;;4966770;28;20282;-69
2022/09/25 03:40:33;;;;;;;64.55;24.40;;;;;;;;;;4965699;28;20079;-70
2022/09/25 03:42:59;;;;;;;78.45;26.50;;;;;;;;;;4965363;28;20065;-70
2022/09/25 03:45:25;;;;;;;85.55;29.38;;;;;;;;;;4967025;28;20236;-70
2022/09/25 03:47:51;;;;;;;77.95;26.92;;;;;;;;;;4967573;28;20047;-70
2022/09/25 03:50:17;;;;;;;83.75;27.02;;;;;;;;;;4968679;28;20043;-70
2022/09/25 03:52:43;;;;;;;75.80;28.42;;;;;;;;;;4966508;28;20035;-70
2022/09/25 03:55:10;;;;;;;80.68;27.63;;;;;;;;;;4971338;28;20522;-70
2022/09/25 03:57:37;;;;;;;61.53;25.30;;;;;;;;;;4969957;28;20046;-70
2022/09/25 04:00:03;;;;;;;67.28;28.08;;;;;;;;;;4977109;28;20038;-70
2022/09/25 04:02:29;;;;;;;64.60;26.90;;;;;;;;;;4967286;28;20605;-70
2022/09/25 04:04:55;;;;;;;73.80;24.40;;;;;;;;;;4966621;28;20404;-70
2022/09/25 04:07:23;;;;;;;70.47;25.00;;;;;;;;;;4964272;28;20039;-71
2022/09/25 04:09:49;;;;;;;69.57;26.05;;;;;;;;;;4966680;28;20034;-70
2022/09/25 04:12:15;;;;;;;66.60;25.27;;;;;;;;;;4975367;28;20036;-71
2022/09/25 04:14:44;;;;;;;70.10;24.13;;;;;;;;;;4969457;28;20046;-71
2022/09/25 04:17:10;;;;;;;72.43;25.38;;;;;;;;;;4964793;28;20027;-70
2022/09/25 04:19:36;;;;;;;84.60;28.90;;;;;;;;;;4972081;28;20038;-70
2022/09/25 04:22:02;;;;;;;55.25;20.92;;;;;;;;;;4967657;28;20047;-70
2022/09/25 04:24:47;;;;;;;54.05;18.13;;;;;;;;;;4967610;28;20504;-71
2022/09/25 04:27:13;;;;;;;48.50;17.90;;;;;;;;;;4964201;28;20035;-70
2022/09/25 04:29:41;;;;;;;62.67;21.85;;;;;;;;;;4967042;28;20034;-70
2022/09/25 04:34:52;;;;;;;61.13;21.63;;;;;;;;;;4967479;28;20049;-70
2022/09/25 04:37:21;;;;;;;42.65;17.48;;;;;;;;;;4967641;28;20041;-70
2022/09/25 04:39:47;;;;;;;34.67;13.98;;;;;;;;;;4982084;28;20034;-70
2022/09/25 04:42:13;;;;;;;33.72;14.20;;;;;;;;;;4967273;28;20038;-70
2022/09/25 04:44:39;;;;;;;37.88;12.75;;;;;;;;;;4965903;28;20042;-70
2022/09/25 04:47:05;;;;;;;35.35;11.52;;;;;;;;;;4969965;28;21057;-70
2022/09/25 04:49:31;;;;;;;22.77;8.98;;;;;;;;;;4966842;28;20066;-70
2022/09/25 04:51:57;;;;;;;42.22;9.02;;;;;;;;;;4968369;28;20046;-70
2022/09/25 04:54:23;;;;;;;25.95;8.23;;;;;;;;;;4968573;28;20054;-70
2022/09/25 04:56:49;;;;;;;19.65;7.82;;;;;;;;;;4995690;28;20027;-70
2022/09/25 04:59:16;;;;;;;24.30;7.82;;;;;;;;;;4970229;28;20141;-70
2022/09/25 05:01:42;;;;;;;28.88;9.63;;;;;;;;;;4964797;28;20087;-72
2022/09/25 05:04:08;;;;;;;25.55;9.73;;;;;;;;;;4967334;28;20058;-72
2022/09/25 05:06:34;;;;;;;30.60;9.80;;;;;;;;;;4967413;28;20026;-71
2022/09/25 05:09:02;;;;;;;26.85;10.45;;;;;;;;;;4968249;28;20042;-70
2022/09/25 05:11:28;;;;;;;35.45;10.63;;;;;;;;;;4963285;28;20146;-71
2022/09/25 05:13:54;;;;;;;37.55;11.13;;;;;;;;;;4966448;28;20037;-70
2022/09/25 05:16:20;;;;;;;30.95;10.98;;;;;;;;;;4959947;28;20038;-72
2022/09/25 05:18:46;;;;;;;31.08;10.05;;;;;;;;;;4976739;28;20027;-70
2022/09/25 05:21:12;;;;;;;27.40;9.88;;;;;;;;;;4975065;28;20053;-70
2022/09/25 05:23:38;;;;;;;30.65;10.73;;;;;;;;;;4964738;28;20042;-72
2022/09/25 05:26:04;;;;;;;29.88;12.68;;;;;;;;;;4978705;28;20064;-71
2022/09/25 05:28:31;;;;;;;37.85;11.68;;;;;;;;;;4969263;28;20492;-70
2022/09/25 05:31:03;;;;;;;21.75;9.63;;;;;;;;;;4965781;28;20288;-72
2022/09/25 05:33:30;;;;;;;28.83;9.35;;;;;;;;;;4965703;28;20077;-71
2022/09/25 05:36:00;;;;;;;35.88;11.93;;;;;;;;;;4965626;28;20026;-70
2022/09/25 05:38:27;;;;;;;35.78;12.93;;;;;;;;;;4965236;28;20034;-70
2022/09/25 05:40:55;;;;;;;29.67;11.07;;;;;;;;;;4963623;28;20034;-71
2022/09/25 05:43:21;;;;;;;32.03;11.70;;;;;;;;;;4968941;28;20030;-71
2022/09/25 05:45:57;;;;;;;33.80;13.73;;;;;;;;;;4978061;28;20141;-71
2022/09/25 05:48:23;;;;;;;26.60;11.77;;;;;;;;;;4969457;28;20109;-73
2022/09/25 05:50:53;;;;;;;33.00;12.85;;;;;;;;;;4969050;28;20055;-73
2022/09/25 05:53:19;;;;;;;30.13;13.10;;;;;;;;;;4964301;28;20367;-73
2022/09/25 05:56:04;;;;;;;30.75;12.10;;;;;;;;;;4967136;28;20109;-71
2022/09/25 05:58:32;;;;;;;30.77;11.90;;;;;;;;;;4970377;28;20023;-71
2022/09/25 06:01:02;;;;;;;29.58;11.38;;;;;;;;;;4971399;28;20034;-71
2022/09/25 06:03:28;;;;;;;34.08;12.98;;;;;;;;;;5000689;28;20093;-71
2022/09/25 06:05:58;;;;;;;30.85;12.25;;;;;;;;;;4970134;28;20421;-71
2022/09/25 06:08:25;;;;;;;35.95;13.40;;;;;;;;;;4997360;28;20095;-70
2022/09/25 06:10:54;;;;;;;37.30;13.20;;;;;;;;;;4968151;28;20027;-71
2022/09/25 06:13:22;;;;;;;37.63;13.35;;;;;;;;;;4970051;28;20065;-71
2022/09/25 06:15:51;;;;;;;32.83;11.95;;;;;;;;;;4968438;28;20508;-72
2022/09/25 06:18:21;;;;;;;36.75;13.40;;;;;;;;;;4965371;28;20039;-71
2022/09/25 06:20:47;;;;;;;37.75;13.85;;;;;;;;;;4965203;28;20027;-72
2022/09/25 06:23:13;;;;;;;40.70;14.27;;;;;;;;;;4966768;28;20042;-71
2022/09/25 06:25:39;;;;;;;32.15;13.43;;;;;;;;;;4971774;28;20358;-71
2022/09/25 06:28:06;;;;;;;32.97;13.48;;;;;;;;;;4964672;28;20030;-70
2022/09/25 06:30:33;;;;;;;30.52;12.93;;;;;;;;;;4975524;28;20049;-72
2022/09/25 06:33:00;;;;;;;33.97;12.20;;;;;;;;;;4968070;28;20534;-72
2022/09/25 06:35:28;;;;;;;24.40;11.50;;;;;;;;;;4968821;28;20037;-71
2022/09/25 06:37:57;;;;;;;31.30;12.65;;;;;;;;;;4963801;28;20065;-71
2022/09/25 06:40:26;;;;;;;29.35;12.45;;;;;;;;;;4960803;28;20030;-71
2022/09/25 06:43:02;;;;;;;32.60;12.93;;;;;;;;;;4960590;28;20054;-71
2022/09/25 06:45:30;;;;;;;44.17;15.77;;;;;;;;;;4963439;28;20518;-72
2022/09/25 06:48:00;;;;;;;41.78;18.00;;;;;;;;;;4963551;28;20580;-71
2022/09/25 06:50:30;;;;;;;36.25;17.95;;;;;;;;;;4964456;28;20049;-72
2022/09/25 06:52:57;;;;;;;38.00;18.63;;;;;;;;;;4962933;28;20030;-72
2022/09/25 06:55:23;;;;;;;37.97;17.48;;;;;;;;;;4963999;28;20110;-71
2022/09/25 06:57:49;;;;;;;31.52;15.93;;;;;;;;;;4967311;28;20035;-71
2022/09/25 07:00:15;;;;;;;40.55;18.95;;;;;;;;;;4979781;28;20042;-72
2022/09/25 07:05:26;;;;;;;30.52;15.80;;;;;;;;;;4968052;28;20097;-71
2022/09/25 07:07:53;;;;;;;47.20;18.58;;;;;;;;;;4981023;28;20026;-72
2022/09/25 07:10:19;;;;;;;35.97;17.58;;;;;;;;;;4965604;28;20038;-71
2022/09/25 07:12:46;;;;;;;32.33;15.95;;;;;;;;;;4965148;28;20061;-71
2022/09/25 07:15:13;;;;;;;37.63;16.15;;;;;;;;;;4965221;28;20027;-71
2022/09/25 07:17:43;;;;;;;30.85;16.27;;;;;;;;;;4965346;28;20039;-72
2022/09/25 07:20:11;;;;;;;27.83;14.52;;;;;;;;;;4967280;28;20031;-71
2022/09/25 07:22:38;;;;;;;37.28;16.58;;;;;;;;;;4963753;28;20047;-71
2022/09/25 07:25:05;;;;;;;30.48;14.60;;;;;;;;;;4964078;28;20031;-72
2022/09/25 07:27:31;;;;;;;27.38;13.13;;;;;;;;;;4969566;28;20031;-72
2022/09/25 07:29:57;;;;;;;25.45;13.02;;;;;;;;;;4970252;28;20053;-71
2022/09/25 07:32:23;;;;;;;25.00;12.77;;;;;;;;;;4970723;28;20034;-72
2022/09/25 07:34:49;;;;;;;26.25;10.75;;;;;;;;;;4974993;28;20508;-72
2022/09/25 07:37:15;;;;;;;22.23;9.25;;;;;;;;;;4963203;28;20112;-71
2022/09/25 07:39:42;;;;;;;23.98;7.90;;;;;;;;;;4963185;28;20034;-71
2022/09/25 07:42:08;;;;;;;17.77;7.70;;;;;;;;;;4959397;28;20054;-71
2022/09/25 07:44:34;;;;;;;20.55;7.90;;;;;;;;;;4963835;28;20268;-71
2022/09/25 07:47:02;;;;;;;21.65;7.40;;;;;;;;;;4966310;28;20042;-72
2022/09/25 07:49:28;;;;;;;18.60;7.18;;;;;;;;;;4964062;28;20066;-71
2022/09/25 07:51:55;;;;;;;19.48;7.60;;;;;;;;;;4963921;28;20502;-71
2022/09/25 07:54:21;;;;;;;13.30;5.57;;;;;;;;;;4964318;28;20042;-71
2022/09/25 07:56:47;;;;;;;15.05;4.57;;;;;;;;;;4985688;28;20063;-71
2022/09/25 07:59:13;;;;;;;10.00;3.15;;;;;;;;;;4965915;28;20053;-71
2022/09/25 08:01:39;;;;;;;12.55;2.90;;;;;;;;;;4965898;28;20043;-71
2022/09/25 08:04:05;;;;;;;16.70;4.18;;;;;;;;;;4967240;28;20084;-71
2022/09/25 08:06:34;;;;;;;12.63;2.47;;;;;;;;;;4964953;28;20161;-71
2022/09/25 08:09:00;;;;;;;10.98;2.88;;;;;;;;;;4969730;28;20064;-71
2022/09/25 08:11:27;;;;;;;14.55;3.47;;;;;;;;;;4968607;28;20035;-71
2022/09/25 08:13:53;;;;;;;9.80;2.33;;;;;;;;;;4963589;28;20122;-71
2022/09/25 08:16:21;;;;;;;12.40;2.45;;;;;;;;;;4966117;28;21937;-71
2022/09/25 08:18:48;;;;;;;11.32;2.00;;;;;;;;;;4979554;28;20513;-71
2022/09/25 08:21:18;;;;;;;15.43;2.38;;;;;;;;;;4967466;28;20042;-71
2022/09/25 08:23:48;;;;;;;9.82;1.80;;;;;;;;;;4982710;28;20047;-71
2022/09/25 08:26:14;;;;;;;8.77;2.33;;;;;;;;;;4963882;28;20220;-71
2022/09/25 08:28:40;;;;;;;10.15;2.10;;;;;;;;;;4962473;28;20601;-71
2022/09/25 08:31:07;;;;;;;8.57;2.00;;;;;;;;;;4962356;28;20041;-71
2022/09/25 08:33:33;;;;;;;12.77;2.60;;;;;;;;;;4967467;28;20567;-71
2022/09/25 08:36:04;;;;;;;7.30;1.80;;;;;;;;;;4965088;28;20023;-70
2022/09/25 08:38:32;;;;;;;8.27;1.58;;;;;;;;;;4965953;28;20488;-71
2022/09/25 08:41:03;;;;;;;9.02;1.83;;;;;;;;;;4965920;28;20041;-71
2022/09/25 08:43:30;;;;;;;6.40;1.67;;;;;;;;;;4965818;28;20031;-72
2022/09/25 08:51:28;;;;;;;12.40;1.38;;;;;;;;;;4964490;28;20114;-71
2022/09/25 08:53:55;;;;;;;8.10;1.25;;;;;;;;;;4965758;28;20066;-70
2022/09/25 08:56:23;;;;;;;8.10;1.90;;;;;;;;;;4965641;28;20415;-70
2022/09/25 08:58:54;;;;;;;5.97;1.20;;;;;;;;;;4966816;28;20047;-70
2022/09/25 09:01:35;;;;;;;7.00;1.77;;;;;;;;;;4961937;28;20582;-70
2022/09/25 09:04:04;;;;;;;13.18;1.70;;;;;;;;;;4964156;28;20035;-70
2022/09/25 09:06:31;;;;;;;5.90;1.70;;;;;;;;;;4967555;28;20060;-70
2022/09/25 09:09:18;;;;;;;12.32;2.28;;;;;;;;;;4980292;28;20668;-70
2022/09/25 09:11:47;;;;;;;9.80;2.10;;;;;;;;;;4967182;28;20067;-71
2022/09/25 09:14:15;;;;;;;5.88;1.75;;;;;;;;;;4964063;28;20089;-71
2022/09/25 09:16:46;;;;;;;9.77;2.33;;;;;;;;;;4965711;28;20157;-71
2022/09/25 09:19:12;;;;;;;11.45;3.97;;;;;;;;;;4966434;28;20053;-71
2022/09/25 09:21:41;;;;;;;10.85;2.30;;;;;;;;;;4961869;28;20542;-71
2022/09/25 09:24:14;;;;;;;6.80;1.92;;;;;;;;;;4962678;28;20022;-71
2022/09/25 09:26:40;;;;;;;14.30;2.78;;;;;;;;;;4963523;28;20052;-71
2022/09/25 09:29:12;;;;;;;12.57;2.20;;;;;;;;;;4959902;28;20037;-70
2022/09/25 09:31:41;;;;;;;6.03;1.80;;;;;;;;;;4963343;28;20039;-71
2022/09/25 09:34:26;;;;;;;5.25;1.70;;;;;;;;;;4967141;28;20030;-71
2022/09/25 09:37:11;;;;;;;6.30;1.58;;;;;;;;;;4965969;28;20025;-71
2022/09/25 09:39:40;;;;;;;5.38;1.50;;;;;;;;;;4962943;28;20027;-72
2022/09/25 09:42:12;;;;;;;6.75;1.73;;;;;;;;;;4964978;28;20034;-70
2022/09/25 09:44:38;;;;;;;7.55;1.50;;;;;;;;;;4962377;28;20077;-70
2022/09/25 09:47:10;;;;;;;5.50;1.40;;;;;;;;;;4971166;28;20117;-70
2022/09/25 09:49:36;;;;;;;8.65;1.40;;;;;;;;;;4964416;28;20054;-70
2022/09/25 09:52:23;;;;;;;10.40;1.30;;;;;;;;;;4961931;28;20093;-70
2022/09/25 09:55:07;;;;;;;7.57;1.60;;;;;;;;;;4967345;28;20026;-70
2022/09/25 09:57:38;;;;;;;6.90;1.48;;;;;;;;;;4978801;28;20063;-70
2022/09/25 10:00:06;;;;;;;7.43;1.33;;;;;;;;;;4963487;28;20023;-70
2022/09/25 10:02:36;;;;;;;6.00;1.20;;;;;;;;;;4969640;28;20187;-70
2022/09/25 10:05:06;;;;;;;5.65;1.00;;;;;;;;;;4989452;28;20035;-70
2022/09/25 10:07:33;;;;;;;5.95;1.30;;;;;;;;;;4986059;28;20422;-69
2022/09/25 10:09:59;;;;;;;4.13;0.93;;;;;;;;;;4978256;28;20399;-70
2022/09/25 10:12:29;;;;;;;3.50;1.00;;;;;;;;;;4967144;28;20038;-70
2022/09/25 10:14:55;;;;;;;4.95;1.10;;;;;;;;;;4968985;28;20034;-70
2022/09/25 10:17:22;;;;;;;5.95;1.33;;;;;;;;;;4965123;28;20775;-70
2022/09/25 10:19:51;;;;;;;4.80;0.70;;;;;;;;;;4965075;28;20492;-70
2022/09/25 10:22:20;;;;;;;5.18;1.30;;;;;;;;;;4966759;28;20042;-70
2022/09/25 10:24:50;;;;;;;4.20;0.85;;;;;;;;;;4961375;28;20154;-70
2022/09/25 10:27:29;;;;;;;6.88;0.90;;;;;;;;;;4963760;28;20042;-70
2022/09/25 10:30:10;;;;;;;5.18;0.88;;;;;;;;;;4968426;28;20109;-70
2022/09/25 10:32:59;;;;;;;5.90;0.70;;;;;;;;;;4971284;28;20109;-69
2022/09/25 10:35:39;;;;;;;5.93;0.90;;;;;;;;;;4967469;28;20074;-69
2022/09/25 10:38:16;;;;;;;3.38;0.90;;;;;;;;;;4967777;28;20103;-69
2022/09/25 10:40:43;;;;;;;4.22;0.70;;;;;;;;;;4973444;28;20035;-70
2022/09/25 10:43:22;;;;;;;3.08;0.63;;;;;;;;;;4964703;28;20082;-70
2022/09/25 10:45:51;;;;;;;6.68;1.02;;;;;;;;;;4968207;28;20081;-69
2022/09/25 10:51:16;;;;;;;3.95;0.68;;;;;;;;;;4965855;28;20133;-69
2022/09/25 10:53:43;;;;;;;4.35;0.73;;;;;;;;;;4978712;28;20482;-70
2022/09/25 10:56:11;;;;;;;5.07;0.70;;;;;;;;;;4963416;28;20173;-70
2022/09/25 10:58:40;;;;;;;3.95;0.95;;;;;;;;;;4967106;28;20122;-70
2022/09/25 11:01:12;;;;;;;3.13;0.63;;;;;;;;;;4965446;28;20026;-70
2022/09/25 11:04:08;;;;;;;3.40;1.08;;;;;;;;;;4967491;28;20113;-70
2022/09/25 11:06:34;;;;;;;4.25;1.08;;;;;;;;;;4959604;28;20035;-71
2022/09/25 11:09:09;;;;;;;2.58;0.90;;;;;;;;;;4961979;28;20142;-70
2022/09/25 11:11:38;;;;;;;3.63;0.82;;;;;;;;;;4969194;28;20492;-70
2022/09/25 11:14:05;;;;;;;4.32;0.70;;;;;;;;;;4967073;28;20056;-71
2022/09/25 11:16:50;;;;;;;2.85;0.70;;;;;;;;;;4962611;28;20103;-70
2022/09/25 11:19:19;;;;;;;4.93;0.90;;;;;;;;;;4967877;28;20036;-70
2022/09/25 11:21:56;;;;;;;4.95;1.05;;;;;;;;;;4972774;28;20042;-71
2022/09/25 11:24:28;;;;;;;14.18;2.95;;;;;;;;;;4967208;28;20759;-71
2022/09/25 11:27:09;;;;;;;3.08;0.73;;;;;;;;;;4975172;28;20053;-71
2022/09/25 11:29:43;;;;;;;5.07;0.68;;;;;;;;;;4981514;28;20038;-70
2022/09/25 11:32:20;;;;;;;4.50;0.90;;;;;;;;;;4962797;28;20481;-70
2022/09/25 11:34:54;;;;;;;3.50;0.70;;;;;;;;;;4966878;28;20568;-70
2022/09/25 11:37:26;;;;;;;5.03;1.63;;;;;;;;;;4979027;28;20564;-69
2022/09/25 11:42:47;;;;;;;2.83;0.80;;;;;;;;;;4966088;28;20258;-70
2022/09/25 11:45:22;;;;;;;3.38;0.65;;;;;;;;;;4964840;28;20049;-72
2022/09/25 11:47:55;;;;;;;5.18;0.88;;;;;;;;;;4966623;28;20034;-71
2022/09/25 11:50:26;;;;;;;2.63;0.57;;;;;;;;;;4968744;28;20046;-72
2022/09/25 11:53:16;;;;;;;3.35;0.80;;;;;;;;;;4968051;28;20043;-72
2022/09/25 11:55:45;;;;;;;2.92;0.68;;;;;;;;;;4978035;28;20018;-71
2022/09/25 11:58:13;;;;;;;3.15;0.60;;;;;;;;;;4970424;28;20022;-71
2022/09/25 12:00:51;;;;;;;4.20;0.93;;;;;;;;;;4967912;28;20034;-71
2022/09/25 12:03:28;;;;;;;2.13;0.60;;;;;;;;;;4981534;28;20043;-71
2022/09/25 12:06:12;;;;;;;4.32;0.82;;;;;;;;;;4975467;28;20046;-72
2022/09/25 12:08:38;;;;;;;4.22;0.60;;;;;;;;;;4972838;28;20089;-72
2022/09/25 12:11:23;;;;;;;3.47;0.90;;;;;;;;;;4969974;28;20157;-72
2022/09/25 12:13:50;;;;;;;3.50;0.95;;;;;;;;;;4974977;28;20049;-72
2022/09/25 12:16:45;;;;;;;3.03;0.90;;;;;;;;;;4973802;28;20232;-72
2022/09/25 12:19:22;;;;;;;2.88;0.75;;;;;;;;;;4969356;28;20035;-71
2022/09/25 12:22:00;;;;;;;2.13;0.82;;;;;;;;;;4964855;28;20112;-71
2022/09/25 12:24:44;;;;;;;4.15;0.75;;;;;;;;;;4971526;28;20034;-71
2022/09/25 12:27:13;;;;;;;7.75;0.93;;;;;;;;;;4965263;28;20046;-71
2022/09/25 12:29:45;;;;;;;5.00;1.77;;;;;;;;;;4969336;28;20031;-72
2022/09/25 12:32:14;;;;;;;5.32;0.93;;;;;;;;;;4975806;28;20142;-70
2022/09/25 12:34:43;;;;;;;5.50;0.90;;;;;;;;;;4965946;28;20023;-71
2022/09/25 12:37:24;;;;;;;8.73;1.13;;;;;;;;;;4969452;28;20867;-72
2022/09/25 12:39:57;;;;;;;6.20;1.00;;;;;;;;;;4971696;28;20035;-70
2022/09/25 12:42:44;;;;;;;4.97;0.70;;;;;;;;;;4970907;28;20034;-70
2022/09/25 12:45:10;;;;;;;6.10;0.90;;;;;;;;;;4966220;28;21479;-70
2022/09/25 12:47:45;;;;;;;8.00;1.40;;;;;;;;;;4967177;28;20495;-71
2022/09/25 12:50:19;;;;;;;6.97;1.40;;;;;;;;;;4963447;28;20051;-71
2022/09/25 12:52:50;;;;;;;3.20;0.90;;;;;;;;;;4964264;28;20098;-70
2022/09/25 12:55:17;;;;;;;6.30;1.23;;;;;;;;;;4977256;28;20026;-70
2022/09/25 12:57:48;;;;;;;5.03;0.90;;;;;;;;;;4968043;28;20027;-71
2022/09/25 13:00:24;;;;;;;6.47;1.40;;;;;;;;;;4975154;28;20770;-71
2022/09/25 13:03:01;;;;;;;5.63;0.90;;;;;;;;;;4964581;28;20040;-70
2022/09/25 13:05:29;;;;;;;5.20;0.90;;;;;;;;;;4967322;28;20049;-70
2022/09/25 13:08:00;;;;;;;6.32;1.15;;;;;;;;;;4969202;28;20042;-70
2022/09/25 13:10:36;;;;;;;6.28;1.90;;;;;;;;;;4986831;28;21169;-70
2022/09/25 13:13:04;;;;;;;5.47;1.83;;;;;;;;;;4972888;28;20042;-71
2022/09/25 13:15:35;;;;;;;13.18;5.80;;;;;;;;;;4982233;28;20053;-70
2022/09/25 13:18:03;;;;;;;8.10;2.55;;;;;;;;;;4966024;28;20109;-70
2022/09/25 13:20:40;;;;;;;5.35;1.00;;;;;;;;;;4971626;28;20085;-70
2022/09/25 13:23:09;;;;;;;4.05;0.82;;;;;;;;;;4970668;28;20484;-70
2022/09/25 13:25:43;;;;;;;4.68;0.93;;;;;;;;;;4965196;28;20038;-69
2022/09/25 13:28:14;;;;;;;4.78;1.17;;;;;;;;;;4960663;28;20539;-71
2022/09/25 13:30:56;;;;;;;9.75;1.20;;;;;;;;;;4964474;28;20031;-70
2022/09/25 13:33:22;;;;;;;4.93;1.55;;;;;;;;;;4960791;28;20125;-70
2022/09/25 13:35:49;;;;;;;2.58;1.10;;;;;;;;;;4960919;28;20180;-70
2022/09/25 13:41:10;;;;;;;2.97;1.10;;;;;;;;;;4969526;28;20113;-70
2022/09/25 13:43:37;;;;;;;4.68;1.27;;;;;;;;;;4962787;28;20089;-69
2022/09/25 13:46:20;;;;;;;4.80;1.33;;;;;;;;;;4966603;28;20121;-70
2022/09/25 13:48:46;;;;;;;6.75;1.08;;;;;;;;;;4977164;28;20110;-70
2022/09/25 13:51:21;;;;;;;3.42;1.13;;;;;;;;;;4978108;28;20047;-70
2022/09/25 13:53:58;;;;;;;3.65;1.40;;;;;;;;;;4977347;28;20058;-70
2022/09/25 13:56:26;;;;;;;3.78;1.38;;;;;;;;;;4962166;28;20084;-71
2022/09/25 13:59:19;;;;;;;6.63;2.53;;;;;;;;;;4976898;28;20133;-70
2022/09/25 14:01:52;;;;;;;4.95;1.98;;;;;;;;;;4959761;28;20076;-69
2022/09/25 14:04:25;;;;;;;5.78;1.70;;;;;;;;;;4981585;28;20089;-70
2022/09/25 14:06:56;;;;;;;4.85;1.13;;;;;;;;;;4967113;28;21191;-70
2022/09/25 14:09:25;;;;;;;2.90;1.10;;;;;;;;;;4967225;28;20066;-70
2022/09/25 14:11:52;;;;;;;4.63;1.13;;;;;;;;;;4968420;28;20038;-70
2022/09/25 14:14:30;;;;;;;3.70;1.02;;;;;;;;;;4963315;28;20191;-71
2022/09/25 14:16:57;;;;;;;5.13;1.05;;;;;;;;;;4967549;28;20018;-69
2022/09/25 14:19:29;;;;;;;2.72;1.10;;;;;;;;;;4970425;28;20050;-69
2022/09/25 14:21:56;;;;;;;3.60;1.00;;;;;;;;;;4967112;28;20026;-70
2022/09/25 14:24:27;;;;;;;3.20;0.77;;;;;;;;;;4965450;28;20487;-70
2022/09/25 14:26:54;;;;;;;1.92;0.63;;;;;;;;;;4967114;28;20907;-70
2022/09/25 14:29:29;;;;;;;6.55;0.88;;;;;;;;;;4966626;28;20288;-70
2022/09/25 14:32:15;;;;;;;2.42;0.80;;;;;;;;;;4968259;28;20037;-70
2022/09/25 14:35:00;;;;;;;6.32;0.63;;;;;;;;;;4964776;28;20034;-70
2022/09/25 14:37:33;;;;;;;3.33;0.60;;;;;;;;;;4966804;28;20666;-70
2022/09/25 14:40:18;;;;;;;2.45;0.68;;;;;;;;;;4967037;28;20030;-69
2022/09/25 14:43:04;;;;;;;3.30;0.63;;;;;;;;;;4966817;28;20066;-70
2022/09/25 14:45:39;;;;;;;2.75;0.60;;;;;;;;;;4968811;28;20444;-71
2022/09/25 14:48:10;;;;;;;3.33;0.68;;;;;;;;;;4982721;28;20033;-70
2022/09/25 14:50:38;;;;;;;3.38;0.88;;;;;;;;;;4967359;28;20062;-70
2022/09/25 14:53:07;;;;;;;3.90;0.65;;;;;;;;;;4980707;28;20077;-70
2022/09/25 14:55:40;;;;;;;2.88;0.63;;;;;;;;;;4968016;28;20030;-70
2022/09/25 14:58:08;;;;;;;3.10;1.00;;;;;;;;;;4977787;28;20038;-70
2022/09/25 15:00:34;;;;;;;1.90;0.70;;;;;;;;;;4965587;28;20038;-70
2022/09/25 15:03:01;;;;;;;2.58;0.80;;;;;;;;;;4959430;28;20094;-70
2022/09/25 15:05:27;;;;;;;5.78;1.38;;;;;;;;;;4962256;28;20041;-70
2022/09/25 15:07:55;;;;;;;6.38;1.75;;;;;;;;;;4978878;28;20037;-69
2022/09/25 15:10:23;;;;;;;3.88;0.80;;;;;;;;;;4965059;28;20101;-70